createdAt,value
2022-09-21T00:01:30.810Z,22.43
2022-09-21T00:04:01.688Z,22.43
2022-09-21T00:06:32.444Z,22.41
2022-09-21T00:09:04.732Z,22.37
2022-09-21T00:11:36.299Z,22.31
2022-09-21T00:14:10.951Z,22.29
2022-09-21T00:16:40.203Z,22.25
2022-09-21T00:19:08.330Z,22.26
2022-09-21T00:21:38.569Z,22.27
2022-09-21T00:24:07.833Z,22.28
2022-09-21T00:26:35.484Z,22.11
2022-09-21T00:29:04.901Z,22.10
2022-09-21T00:31:37.927Z,22.00
2022-09-21T00:34:08.487Z,21.98
2022-09-21T00:36:37.501Z,21.91
2022-09-21T00:39:10.653Z,21.87
2022-09-21T00:41:39.152Z,21.85
2022-09-21T00:44:30.780Z,21.88
2022-09-21T00:47:12.682Z,21.73
2022-09-21T00:49:50.090Z,21.65
2022-09-21T00:52:20.402Z,21.58
2022-09-21T00:54:59.676Z,21.57
2022-09-21T00:57:31.476Z,21.64
2022-09-21T01:00:02.793Z,21.67
2022-09-21T01:02:30.848Z,21.66
2022-09-21T01:05:00.191Z,21.66
2022-09-21T01:07:32.734Z,21.68
2022-09-21T01:10:06.553Z,21.68
2022-09-21T01:12:55.483Z,21.73
2022-09-21T01:15:35.289Z,21.77
2022-09-21T01:18:42.758Z,21.79
2022-09-21T01:21:16.927Z,21.81
2022-09-21T01:23:59.817Z,21.85
2022-09-21T01:26:46.730Z,21.89
2022-09-21T01:29:21.326Z,21.80
2022-09-21T01:32:33.022Z,21.86
2022-09-21T01:35:16.314Z,21.83
2022-09-21T01:37:58.906Z,21.76
2022-09-21T01:40:41.982Z,21.67
2022-09-21T01:43:26.879Z,21.64
2022-09-21T01:46:02.485Z,21.54
2022-09-21T01:48:35.894Z,21.49
2022-09-21T01:51:15.777Z,21.52
2022-09-21T01:53:57.979Z,21.43
2022-09-21T01:56:41.076Z,21.51
2022-09-21T01:59:18.819Z,21.57
2022-09-21T02:01:54.403Z,21.58
2022-09-21T02:04:23.715Z,21.62
2022-09-21T02:06:53.106Z,21.65
2022-09-21T02:09:23.094Z,21.67
2022-09-21T02:11:52.541Z,21.56
2022-09-21T02:14:26.037Z,21.57
2022-09-21T02:17:26.493Z,21.51
2022-09-21T02:19:59.280Z,21.50
2022-09-21T02:22:42.482Z,21.53
2022-09-21T02:25:45.678Z,21.62
2022-09-21T02:28:51.808Z,21.64
2022-09-21T02:32:12.448Z,21.62
2022-09-21T02:35:00.916Z,21.44
2022-09-21T02:38:00.259Z,21.50
2022-09-21T02:40:41.139Z,21.52
2022-09-21T02:43:21.337Z,21.51
2022-09-21T02:46:00.159Z,21.59
2022-09-21T02:48:43.188Z,21.58
2022-09-21T02:51:20.427Z,21.55
2022-09-21T02:53:51.835Z,21.57
2022-09-21T02:56:20.391Z,21.56
2022-09-21T02:58:54.791Z,21.54
2022-09-21T03:01:25.638Z,21.52
2022-09-21T03:03:53.993Z,21.50
2022-09-21T03:06:21.765Z,21.53
2022-09-21T03:08:49.847Z,21.49
2022-09-21T03:11:19.112Z,21.49
2022-09-21T03:13:47.370Z,21.40
2022-09-21T03:16:15.718Z,21.33
2022-09-21T03:18:44.551Z,21.34
2022-09-21T03:21:13.315Z,21.29
2022-09-21T03:23:41.540Z,21.30
2022-09-21T03:26:10.488Z,21.29
2022-09-21T03:28:39.117Z,21.27
2022-09-21T03:31:07.534Z,21.32
2022-09-21T03:33:35.371Z,21.34
2022-09-21T03:36:08.824Z,21.35
2022-09-21T03:38:39.025Z,21.38
2022-09-21T03:41:07.767Z,21.43
2022-09-21T03:43:35.542Z,21.34
2022-09-21T03:46:04.045Z,21.40
2022-09-21T03:48:33.109Z,21.37
2022-09-21T03:51:01.596Z,21.35
2022-09-21T03:53:34.862Z,21.24
2022-09-21T03:56:03.254Z,21.31
2022-09-21T03:58:31.134Z,21.26
2022-09-21T04:01:04.792Z,21.14
2022-09-21T04:03:32.727Z,21.09
2022-09-21T04:06:00.672Z,21.06
2022-09-21T04:08:28.540Z,21.07
2022-09-21T04:10:56.738Z,21.02
2022-09-21T04:13:25.310Z,21.04
2022-09-21T04:15:53.665Z,21.05
2022-09-21T04:18:24.895Z,21.02
2022-09-21T04:20:54.890Z,21.10
2022-09-21T04:23:23.664Z,21.17
2022-09-21T04:25:52.091Z,21.27
2022-09-21T04:28:20.168Z,21.30
2022-09-21T04:30:48.018Z,21.36
2022-09-21T04:33:23.083Z,21.34
2022-09-21T04:35:58.012Z,21.25
2022-09-21T04:38:25.985Z,21.24
2022-09-21T04:40:57.408Z,21.25
2022-09-21T04:43:28.733Z,21.22
2022-09-21T04:45:56.297Z,21.29
2022-09-21T04:48:26.864Z,21.26
2022-09-21T04:50:54.345Z,21.12
2022-09-21T04:53:21.906Z,21.14
2022-09-21T04:55:49.974Z,21.06
2022-09-21T04:58:22.451Z,21.03
2022-09-21T05:00:54.220Z,20.94
2022-09-21T05:03:24.268Z,20.94
2022-09-21T05:05:56.251Z,21.02
2022-09-21T05:08:44.409Z,20.98
2022-09-21T05:11:16.294Z,21.01
2022-09-21T05:13:43.916Z,21.05
2022-09-21T05:16:12.553Z,20.86
2022-09-21T05:18:41.751Z,20.93
2022-09-21T05:21:11.899Z,20.91
2022-09-21T05:23:40.023Z,20.93
2022-09-21T05:26:08.230Z,20.98
2022-09-21T05:28:40.337Z,20.95
2022-09-21T05:31:32.415Z,20.93
2022-09-21T05:34:36.438Z,20.97
2022-09-21T05:37:45.034Z,20.97
2022-09-21T05:40:18.889Z,20.87
2022-09-21T05:42:47.251Z,20.91
2022-09-21T05:45:21.558Z,20.71
2022-09-21T05:48:13.987Z,20.85
2022-09-21T05:50:52.637Z,20.92
2022-09-21T05:53:49.962Z,20.97
2022-09-21T05:56:48.926Z,20.97
2022-09-21T05:59:38.618Z,20.94
2022-09-21T06:02:25.312Z,21.04
2022-09-21T06:05:00.347Z,20.91
2022-09-21T06:07:27.970Z,20.99
2022-09-21T06:09:56.380Z,21.11
2022-09-21T06:12:24.406Z,21.14
2022-09-21T06:14:52.152Z,21.08
2022-09-21T06:17:20.080Z,21.08
2022-09-21T06:19:47.723Z,21.13
2022-09-21T06:22:15.265Z,21.20
2022-09-21T06:24:42.925Z,21.23
2022-09-21T06:27:10.489Z,21.21
2022-09-21T06:29:37.926Z,21.26
2022-09-21T06:32:05.691Z,21.31
2022-09-21T06:34:33.279Z,21.44
2022-09-21T06:37:01.432Z,21.59
2022-09-21T06:39:30.790Z,21.73
2022-09-21T06:41:59.547Z,21.73
2022-09-21T06:44:27.514Z,21.76
2022-09-21T06:46:55.275Z,21.74
2022-09-21T06:49:22.774Z,21.60
2022-09-21T06:51:50.648Z,21.66
2022-09-21T06:54:19.869Z,21.71
2022-09-21T06:56:48.429Z,21.81
2022-09-21T06:59:21.139Z,21.84
2022-09-21T07:01:49.074Z,21.91
2022-09-21T07:04:16.761Z,22.00
2022-09-21T07:06:44.165Z,22.07
2022-09-21T07:12:00.377Z,22.00
2022-09-21T07:14:28.167Z,21.97
2022-09-21T07:16:55.825Z,21.94
2022-09-21T07:19:23.255Z,21.93
2022-09-21T07:21:53.320Z,21.89
2022-09-21T07:24:20.822Z,21.98
2022-09-21T07:26:50.282Z,22.08
2022-09-21T07:29:18.526Z,22.23
2022-09-21T07:31:48.941Z,22.43
2022-09-21T07:34:16.481Z,22.52
2022-09-21T07:36:44.627Z,22.60
2022-09-21T07:39:12.648Z,22.78
2022-09-21T07:41:40.192Z,22.94
2022-09-21T07:44:07.797Z,23.09
2022-09-21T07:46:41.251Z,23.23
2022-09-21T07:49:13.916Z,23.41
2022-09-21T07:51:46.628Z,23.53
2022-09-21T07:54:16.220Z,23.73
2022-09-21T07:57:03.564Z,23.88
2022-09-21T07:59:33.052Z,23.98
2022-09-21T08:02:01.106Z,24.16
2022-09-21T08:04:29.701Z,24.41
2022-09-21T08:06:57.481Z,24.50
2022-09-21T08:09:30.388Z,24.50
2022-09-21T08:12:01.712Z,24.64
2022-09-21T08:14:29.827Z,24.70
2022-09-21T08:16:57.867Z,24.74
2022-09-21T08:19:27.300Z,24.83
2022-09-21T08:21:57.864Z,24.83
2022-09-21T08:24:29.214Z,24.87
2022-09-21T08:26:57.932Z,24.89
2022-09-21T08:29:26.644Z,24.84
2022-09-21T08:31:54.345Z,24.92
2022-09-21T08:34:23.484Z,24.76
2022-09-21T08:36:55.232Z,24.88
2022-09-21T08:39:24.101Z,25.01
2022-09-21T08:42:39.590Z,25.09
2022-09-21T08:45:17.496Z,25.10
2022-09-21T08:47:52.629Z,25.11
2022-09-21T08:50:22.889Z,25.23
2022-09-21T08:52:58.299Z,25.28
2022-09-21T08:55:26.026Z,25.32
2022-09-21T08:57:54.149Z,25.34
2022-09-21T09:00:22.085Z,25.45
2022-09-21T09:03:11.329Z,25.42
2022-09-21T09:06:10.246Z,25.55
2022-09-21T09:09:02.575Z,25.45
2022-09-21T09:11:30.459Z,25.45
2022-09-21T09:14:25.535Z,25.42
2022-09-21T09:17:33.917Z,25.52
2022-09-21T09:20:16.556Z,25.52
2022-09-21T09:23:03.345Z,25.60
2022-09-21T09:25:39.060Z,25.66
2022-09-21T09:28:14.394Z,25.59
2022-09-21T09:30:43.247Z,25.73
2022-09-21T09:33:21.920Z,25.68
2022-09-21T09:35:51.402Z,25.65
2022-09-21T09:38:28.699Z,25.52
2022-09-21T09:41:17.438Z,25.48
2022-09-21T09:43:57.509Z,25.43
2022-09-21T09:46:40.335Z,25.44
2022-09-21T09:49:19.903Z,25.56
2022-09-21T09:51:49.117Z,25.57
2022-09-21T09:54:20.467Z,25.74
2022-09-21T09:56:47.937Z,25.82
2022-09-21T09:59:33.372Z,25.88
2022-09-21T10:02:04.184Z,25.81
2022-09-21T10:04:35.462Z,25.98
2022-09-21T10:07:03.050Z,26.11
2022-09-21T10:09:34.820Z,26.29
2022-09-21T10:12:24.518Z,26.44
2022-09-21T10:15:01.876Z,26.42
2022-09-21T10:17:29.468Z,26.44
2022-09-21T10:20:04.966Z,26.50
2022-09-21T10:22:32.485Z,26.49
2022-09-21T10:25:02.125Z,26.44
2022-09-21T10:27:35.972Z,26.39
2022-09-21T10:30:04.240Z,26.51
2022-09-21T10:32:31.753Z,26.58
2022-09-21T10:35:08.251Z,26.61
2022-09-21T10:37:41.412Z,26.74
2022-09-21T10:40:27.333Z,26.70
2022-09-21T10:43:01.857Z,26.63
2022-09-21T10:45:37.463Z,26.58
2022-09-21T10:48:17.386Z,26.62
2022-09-21T10:50:47.344Z,26.49
2022-09-21T10:53:35.553Z,26.58
2022-09-21T10:56:17.749Z,26.52
2022-09-21T10:59:12.066Z,26.44
2022-09-21T11:01:46.166Z,26.41
2022-09-21T11:04:39.206Z,26.43
2022-09-21T11:07:48.844Z,26.42
2022-09-21T11:10:22.068Z,26.55
2022-09-21T11:13:08.334Z,26.63
2022-09-21T11:15:54.840Z,26.62
2022-09-21T11:18:50.467Z,26.71
2022-09-21T11:21:34.966Z,26.68
2022-09-21T11:24:08.460Z,26.62
2022-09-21T11:26:49.810Z,26.54
2022-09-21T11:29:55.655Z,26.58
2022-09-21T11:32:45.432Z,26.48
2022-09-21T11:35:33.185Z,26.60
2022-09-21T11:38:12.628Z,26.68
2022-09-21T11:40:40.592Z,26.83
2022-09-21T11:43:22.803Z,26.72
2022-09-21T11:46:07.234Z,26.74
2022-09-21T11:48:47.008Z,26.63
2022-09-21T11:51:39.135Z,26.62
2022-09-21T11:54:26.586Z,26.54
2022-09-21T11:57:20.545Z,26.57
2022-09-21T12:00:08.027Z,26.51
2022-09-21T12:02:55.391Z,26.65
2022-09-21T12:05:26.584Z,26.59
2022-09-21T12:08:03.928Z,26.47
2022-09-21T12:11:00.874Z,26.52
2022-09-21T12:14:06.084Z,26.68
2022-09-21T12:17:05.688Z,26.63
2022-09-21T12:20:06.610Z,26.71
2022-09-21T12:22:47.770Z,26.76
2022-09-21T12:25:23.010Z,26.69
2022-09-21T12:28:01.053Z,26.72
2022-09-21T12:30:36.935Z,26.85
2022-09-21T12:33:43.387Z,26.91
2022-09-21T12:36:41.116Z,26.75
2022-09-21T12:39:29.549Z,26.59
2022-09-21T12:42:11.787Z,26.47
2022-09-21T12:44:55.121Z,26.65
2022-09-21T12:47:38.528Z,26.80
2022-09-21T12:50:32.903Z,26.90
2022-09-21T12:53:02.217Z,26.94
2022-09-21T12:55:51.440Z,26.93
2022-09-21T12:58:30.195Z,26.97
2022-09-21T13:01:33.183Z,26.92
2022-09-21T13:04:30.792Z,26.86
2022-09-21T13:07:18.470Z,26.83
2022-09-21T13:09:52.182Z,26.79
2022-09-21T13:12:28.849Z,26.79
2022-09-21T13:15:05.155Z,26.83
2022-09-21T13:17:34.649Z,26.85
2022-09-21T13:20:17.720Z,26.88
2022-09-21T13:22:46.335Z,26.93
2022-09-21T13:25:39.282Z,26.72
2022-09-21T13:28:20.274Z,26.88
2022-09-21T13:31:39.918Z,26.81
2022-09-21T13:34:32.960Z,26.67
2022-09-21T13:37:16.449Z,26.63
2022-09-21T13:39:59.107Z,26.55
2022-09-21T13:42:33.342Z,26.47
2022-09-21T13:45:14.526Z,26.41
2022-09-21T13:47:54.187Z,26.31
2022-09-21T13:50:33.051Z,26.33
2022-09-21T13:53:28.858Z,26.36
2022-09-21T13:56:17.105Z,26.51
2022-09-21T13:58:48.328Z,26.36
2022-09-21T14:01:46.650Z,26.38
2022-09-21T14:04:38.376Z,26.29
2022-09-21T14:07:09.361Z,26.23
2022-09-21T14:10:15.919Z,26.09
2022-09-21T14:12:45.673Z,26.11
2022-09-21T14:15:20.113Z,26.11
2022-09-21T14:18:16.223Z,26.14
2022-09-21T14:21:09.591Z,26.05
2022-09-21T14:23:40.092Z,26.02
2022-09-21T14:26:34.013Z,25.98
2022-09-21T14:29:17.953Z,25.84
2022-09-21T14:31:46.470Z,26.09
2022-09-21T14:34:23.856Z,26.20
2022-09-21T14:36:56.539Z,26.15
2022-09-21T14:39:35.694Z,25.99
2022-09-21T14:42:13.018Z,26.16
2022-09-21T14:44:42.731Z,26.15
2022-09-21T14:47:21.500Z,26.29
2022-09-21T14:50:22.982Z,26.36
2022-09-21T14:53:14.816Z,26.25
2022-09-21T14:56:10.462Z,26.40
2022-09-21T14:59:16.027Z,26.43
2022-09-21T15:01:59.919Z,26.30
2022-09-21T15:05:13.307Z,26.10
2022-09-21T15:08:11.851Z,26.28
2022-09-21T15:11:39.136Z,26.21
2022-09-21T15:14:33.512Z,26.15
2022-09-21T15:17:26.411Z,26.27
2022-09-21T15:19:59.668Z,26.35
2022-09-21T15:22:28.698Z,26.09
2022-09-21T15:25:04.687Z,26.25
2022-09-21T15:27:38.254Z,26.42
2022-09-21T15:30:13.390Z,26.46
2022-09-21T15:32:46.807Z,26.57
2022-09-21T15:35:28.019Z,26.40
2022-09-21T15:38:03.092Z,26.38
2022-09-21T15:40:37.906Z,26.30
2022-09-21T15:43:12.280Z,26.21
2022-09-21T15:45:58.343Z,26.03
2022-09-21T15:48:27.229Z,26.02
2022-09-21T15:51:00.232Z,26.11
2022-09-21T15:53:33.884Z,26.18
2022-09-21T15:56:03.284Z,26.28
2022-09-21T15:58:37.957Z,26.14
2022-09-21T16:01:13.462Z,26.08
2022-09-21T16:03:43.043Z,26.19
2022-09-21T16:06:22.835Z,26.15
2022-09-21T16:08:51.087Z,26.19
2022-09-21T16:11:28.546Z,26.12
2022-09-21T16:14:38.275Z,25.84
2022-09-21T16:17:25.836Z,25.72
2022-09-21T16:19:56.129Z,25.81
2022-09-21T16:22:45.292Z,25.67
2022-09-21T16:25:24.054Z,25.60
2022-09-21T16:28:04.888Z,25.78
2022-09-21T16:30:53.146Z,25.71
2022-09-21T16:33:47.779Z,25.76
2022-09-21T16:36:19.015Z,25.77
2022-09-21T16:38:56.284Z,25.76
2022-09-21T16:41:32.567Z,25.82
2022-09-21T16:44:01.115Z,25.69
2022-09-21T16:46:29.247Z,25.74
2022-09-21T16:48:57.393Z,25.57
2022-09-21T16:51:27.355Z,25.64
2022-09-21T16:54:02.939Z,25.68
2022-09-21T16:56:30.559Z,25.47
2022-09-21T16:59:00.518Z,25.38
2022-09-21T17:01:28.640Z,25.30
2022-09-21T17:03:57.100Z,25.21
2022-09-21T17:06:24.500Z,25.27
2022-09-21T17:08:51.976Z,25.16
2022-09-21T17:11:20.426Z,25.14
2022-09-21T17:13:51.375Z,25.08
2022-09-21T17:16:20.565Z,24.88
2022-09-21T17:18:49.268Z,24.82
2022-09-21T17:21:17.030Z,24.82
2022-09-21T17:23:45.766Z,24.68
2022-09-21T17:26:21.594Z,24.61
2022-09-21T17:28:49.083Z,24.75
2022-09-21T17:31:16.968Z,24.74
2022-09-21T17:33:45.904Z,24.81
2022-09-21T17:36:18.372Z,24.81
2022-09-21T17:38:46.057Z,24.69
2022-09-21T17:41:23.905Z,24.72
2022-09-21T17:44:15.264Z,24.68
2022-09-21T17:47:09.264Z,24.54
2022-09-21T17:49:37.827Z,24.47
2022-09-21T17:52:38.665Z,24.50
2022-09-21T17:55:09.087Z,24.36
2022-09-21T17:57:42.316Z,24.41
2022-09-21T18:00:19.722Z,24.43
2022-09-21T18:02:48.347Z,24.38
2022-09-21T18:05:30.191Z,24.40
2022-09-21T18:07:57.930Z,24.32
2022-09-21T18:10:27.412Z,24.37
2022-09-21T18:13:13.850Z,24.29
2022-09-21T18:16:06.616Z,24.25
2022-09-21T18:18:49.056Z,24.19
2022-09-21T18:21:23.126Z,24.06
2022-09-21T18:24:19.428Z,23.99
2022-09-21T18:26:49.225Z,23.99
2022-09-21T18:29:39.465Z,23.87
2022-09-21T18:32:34.540Z,23.84
2022-09-21T18:35:24.140Z,24.03
2022-09-21T18:38:03.743Z,24.08
2022-09-21T18:40:36.982Z,24.10
2022-09-21T18:43:08.193Z,24.12
2022-09-21T18:45:46.208Z,24.18
2022-09-21T18:48:35.030Z,24.14
2022-09-21T18:51:14.573Z,24.17
2022-09-21T18:53:54.060Z,24.20
2022-09-21T18:56:22.946Z,24.18
2022-09-21T18:58:50.816Z,24.17
2022-09-21T19:01:24.138Z,24.17
2022-09-21T19:03:51.974Z,24.16
2022-09-21T19:06:34.224Z,24.20
2022-09-21T19:09:01.784Z,24.25
2022-09-21T19:11:47.932Z,24.26
2022-09-21T19:14:18.147Z,24.27
2022-09-21T19:17:07.253Z,24.23
2022-09-21T19:20:24.161Z,24.30
2022-09-21T19:23:13.771Z,24.29
2022-09-21T19:25:49.713Z,24.29
2022-09-21T19:28:41.746Z,24.25
2022-09-21T19:31:19.432Z,24.26
2022-09-21T19:33:50.856Z,24.17
2022-09-21T19:36:19.857Z,24.17
2022-09-21T19:38:47.782Z,24.15
2022-09-21T19:41:27.192Z,24.09
2022-09-21T19:44:35.584Z,24.08
2022-09-21T19:47:31.858Z,23.99
2022-09-21T19:50:23.740Z,23.94
2022-09-21T19:53:18.566Z,23.95
2022-09-21T19:56:07.554Z,23.80
2022-09-21T19:59:14.948Z,23.82
2022-09-21T20:01:52.849Z,23.88
2022-09-21T20:04:38.810Z,23.80
2022-09-21T20:07:49.463Z,23.83
2022-09-21T20:10:49.250Z,23.75
2022-09-21T20:14:01.297Z,23.83
2022-09-21T20:16:36.802Z,23.91
2022-09-21T20:19:31.435Z,23.94
2022-09-21T20:22:09.304Z,23.89
2022-09-21T20:24:43.658Z,23.87
2022-09-21T20:27:37.851Z,23.90
2022-09-21T20:30:12.291Z,23.83
2022-09-21T20:32:42.509Z,23.84
2022-09-21T20:35:23.793Z,23.76
2022-09-21T20:37:57.478Z,23.76
2022-09-21T20:40:29.632Z,23.71
2022-09-21T20:42:58.532Z,23.67
2022-09-21T20:45:26.916Z,23.71
2022-09-21T20:47:55.565Z,23.63
2022-09-21T20:50:26.970Z,23.62
2022-09-21T20:52:54.488Z,23.74
2022-09-21T20:55:21.780Z,23.75
2022-09-21T20:57:49.290Z,23.77
2022-09-21T21:00:17.475Z,23.81
2022-09-21T21:02:45.240Z,23.87
2022-09-21T21:05:12.800Z,23.89
2022-09-21T21:07:43.698Z,23.94
2022-09-21T21:10:16.839Z,23.88
2022-09-21T21:12:44.998Z,23.93
2022-09-21T21:15:12.985Z,24.00
2022-09-21T21:17:42.505Z,23.98
2022-09-21T21:20:10.965Z,23.95
2022-09-21T21:22:38.167Z,23.96
2022-09-21T21:25:05.833Z,23.85
2022-09-21T21:27:33.547Z,23.94
2022-09-21T21:30:02.415Z,23.99
2022-09-21T21:32:32.699Z,24.01
2022-09-21T21:35:00.145Z,24.02
2022-09-21T21:37:28.783Z,23.94
2022-09-21T21:39:59.407Z,23.90
2022-09-21T21:42:28.766Z,23.80
2022-09-21T21:44:56.901Z,23.85
2022-09-21T21:47:40.871Z,23.84
2022-09-21T21:50:10.809Z,23.85
2022-09-21T21:52:41.076Z,23.83
2022-09-21T21:55:09.084Z,23.78
2022-09-21T21:57:38.844Z,23.83
2022-09-21T22:00:10.382Z,23.86
2022-09-21T22:02:38.324Z,23.86
2022-09-21T22:05:06.453Z,23.84
2022-09-21T22:07:34.028Z,23.82
2022-09-21T22:10:01.556Z,23.77
2022-09-21T22:12:28.879Z,23.74
2022-09-21T22:15:00.144Z,23.76
2022-09-21T22:17:27.749Z,23.70
2022-09-21T22:19:57.326Z,23.77
2022-09-21T22:22:25.469Z,23.80
2022-09-21T22:24:52.827Z,23.80
2022-09-21T22:27:20.160Z,23.81
2022-09-21T22:29:48.744Z,23.82
2022-09-21T22:32:16.765Z,23.82
2022-09-21T22:34:44.273Z,23.79
2022-09-21T22:37:12.143Z,23.77
2022-09-21T22:39:39.496Z,23.71
2022-09-21T22:42:07.863Z,23.71
2022-09-21T22:44:35.640Z,23.69
2022-09-21T22:47:03.111Z,23.65
2022-09-21T22:49:30.598Z,23.67
2022-09-21T22:51:59.961Z,23.68
2022-09-21T22:54:28.291Z,23.70
2022-09-21T22:56:55.927Z,23.63
2022-09-21T22:59:23.690Z,23.67
2022-09-21T23:01:51.142Z,23.64
2022-09-21T23:04:18.902Z,23.61
2022-09-21T23:06:46.686Z,23.56
2022-09-21T23:09:20.595Z,23.54
2022-09-21T23:11:53.875Z,23.54
2022-09-21T23:14:24.700Z,23.54
2022-09-21T23:16:53.715Z,23.49
2022-09-21T23:19:21.359Z,23.32
2022-09-21T23:21:50.499Z,23.33
2022-09-21T23:24:19.023Z,23.33
2022-09-21T23:26:48.127Z,23.26
2022-09-21T23:29:16.543Z,23.26
2022-09-21T23:31:46.023Z,23.26
2022-09-21T23:34:17.409Z,23.17
2022-09-21T23:36:46.238Z,23.10
2022-09-21T23:39:16.186Z,23.15
2022-09-21T23:41:44.385Z,23.04
2022-09-21T23:44:11.814Z,23.07
2022-09-21T23:46:40.952Z,23.05
2022-09-21T23:49:09.494Z,23.08
2022-09-21T23:51:36.915Z,23.08
2022-09-21T23:54:05.331Z,22.99
2022-09-21T23:56:35.202Z,23.01
2022-09-21T23:59:02.970Z,23.02
